Kay A. Eckstein — WDB9183 — position and weather

sailwx.info

Track history (hours):
 
Tides and Currents Weather Stations Pressure Air Temp Water Temp Dewpoint Dewpoint Depression Visibility Wind Speed Wind Dir Waves Ship Positions

Kay A. Eckstein

Owner: Marquette Transportation, Paducah, KY. More information available from US FCC via Universal Licensing System and Coast Guard Vessel Documentation Center.

Last reported at 2014-Aug-28 10:18 UTC. Time now 2014-Nov-01 11:58 UTC.
Position N 29°59' W 090°50'.
Warning: this ship's position is months out of date.

Length 34 m; draft 3.4 m.

MMSI: 366971460.

Date/timePositionNaut miles runAvg speedWind from/ knotsBaromVisibWave heightAir tempDewpointWater temp
2014-Aug-28 10:18N 29°59' W 090°50'11 1.0
2014-Aug-27 23:33N 30°02' W 090°38'6 6.4
2014-Aug-27 22:33N 30°03' W 090°30'15 1.0
2014-Aug-27 08:33N 29°58' W 090°14'6 6.0
2014-Aug-27 07:33N 29°56' W 090°21'6 6.0
2014-Aug-27 06:33N 29°60' W 090°27'3 2.6
2014-Aug-27 05:34N 30°02' W 090°28'0 0.0
2014-Aug-27 04:33N 30°02' W 090°28'0 0.1
2014-Aug-27 03:33N 30°02' W 090°28'5 4.9
2014-Aug-27 02:33N 30°03' W 090°34'6 5.5
2014-Aug-27 01:33N 30°03' W 090°40'0 0.1
2014-Aug-27 00:33N 30°03' W 090°40'0 0.0
2014-Aug-26 23:33N 30°03' W 090°40'3 2.6
2014-Aug-26 22:33N 30°01' W 090°43'6 5.7
2014-Aug-26 21:33N 29°59' W 090°49'  
Track history (hours):
 
Tides and Currents Weather Stations Pressure Air Temp Water Temp Dewpoint Dewpoint Depression Visibility Wind Speed Wind Dir Waves Ship Positions

Kay A. Eckstein

Owner: Marquette Transportation, Paducah, KY. More information available from US FCC via Universal Licensing System and Coast Guard Vessel Documentation Center.

Last reported at 2014-Aug-28 10:18 UTC. Time now 2014-Nov-01 11:58 UTC.
Position N 29°59' W 090°50'.
Warning: this ship's position is months out of date.

Length 34 m; draft 3.4 m.

MMSI: 366971460.

Date/timePositionNaut miles runAvg speedWind from/ knotsBaromVisibWave heightAir tempDewpointWater temp
2014-Aug-28 10:18N 29°59' W 090°50'11 1.0
2014-Aug-27 23:33N 30°02' W 090°38'6 6.4
2014-Aug-27 22:33N 30°03' W 090°30'15 1.0
2014-Aug-27 08:33N 29°58' W 090°14'6 6.0
2014-Aug-27 07:33N 29°56' W 090°21'6 6.0
2014-Aug-27 06:33N 29°60' W 090°27'3 2.6
2014-Aug-27 05:34N 30°02' W 090°28'0 0.0
2014-Aug-27 04:33N 30°02' W 090°28'0 0.1
2014-Aug-27 03:33N 30°02' W 090°28'5 4.9
2014-Aug-27 02:33N 30°03' W 090°34'6 5.5
2014-Aug-27 01:33N 30°03' W 090°40'0 0.1
2014-Aug-27 00:33N 30°03' W 090°40'0 0.0
2014-Aug-26 23:33N 30°03' W 090°40'3 2.6
2014-Aug-26 22:33N 30°01' W 090°43'6 5.7
2014-Aug-26 21:33N 29°59' W 090°49'  

Dump ship's entire track history